createdAt,value
2019-02-18T00:00:42.829Z,6.24
2019-02-18T00:05:48.104Z,6.22
2019-02-18T00:10:53.367Z,6.18
2019-02-18T00:15:59.440Z,6.21
2019-02-18T00:21:05.120Z,6.15
2019-02-18T00:26:10.720Z,6.10
2019-02-18T00:31:16.364Z,6.02
2019-02-18T00:36:21.619Z,5.96
2019-02-18T00:41:27.121Z,5.88
2019-02-18T00:46:32.313Z,5.76
2019-02-18T00:51:37.823Z,5.78
2019-02-18T00:56:43.175Z,5.73
2019-02-18T01:01:48.372Z,5.67
2019-02-18T01:06:53.638Z,5.56
2019-02-18T01:11:59.753Z,5.49
2019-02-18T01:17:05.058Z,5.39
2019-02-18T01:22:10.259Z,5.27
2019-02-18T01:27:15.424Z,5.15
2019-02-18T01:32:20.687Z,5.04
2019-02-18T01:37:26.207Z,4.87
2019-02-18T01:42:32.018Z,4.84
2019-02-18T01:47:37.965Z,4.82
2019-02-18T01:52:43.142Z,4.79
2019-02-18T01:57:48.860Z,4.77
2019-02-18T02:02:55.682Z,4.80
2019-02-18T02:08:00.952Z,4.80
2019-02-18T02:13:41.515Z,4.88
2019-02-18T02:18:46.693Z,4.86
2019-02-18T02:23:52.312Z,4.93
2019-02-18T02:28:57.570Z,4.84
2019-02-18T02:34:02.829Z,4.79
2019-02-18T02:39:08.424Z,4.79
2019-02-18T02:44:13.876Z,4.81
2019-02-18T02:49:20.110Z,4.76
2019-02-18T02:54:26.050Z,4.68
2019-02-18T02:59:31.228Z,4.61
2019-02-18T03:04:36.486Z,4.50
2019-02-18T03:09:41.943Z,4.46
2019-02-18T03:14:47.616Z,4.37
2019-02-18T03:19:52.792Z,4.45
2019-02-18T03:25:18.453Z,4.41
2019-02-18T03:30:33.964Z,4.35
2019-02-18T03:35:39.984Z,4.29
2019-02-18T03:40:45.505Z,4.25
2019-02-18T03:45:51.078Z,4.15
2019-02-18T03:50:56.411Z,3.99
2019-02-18T03:56:02.432Z,3.93
2019-02-18T04:01:07.595Z,3.90
2019-02-18T04:06:12.774Z,4.03
2019-02-18T04:11:18.675Z,4.15
2019-02-18T04:16:24.159Z,4.33
2019-02-18T04:21:29.324Z,4.47
2019-02-18T04:26:34.756Z,4.38
2019-02-18T04:31:40.273Z,4.25
2019-02-18T04:36:45.335Z,4.17
2019-02-18T04:41:50.421Z,4.06
2019-02-18T04:46:56.258Z,3.96
2019-02-18T04:52:01.316Z,3.90
2019-02-18T04:57:06.461Z,3.84
2019-02-18T05:02:11.873Z,3.77
2019-02-18T05:07:16.946Z,3.58
2019-02-18T05:12:22.086Z,3.40
2019-02-18T05:17:27.576Z,3.30
2019-02-18T05:22:33.094Z,3.18
2019-02-18T05:27:38.181Z,3.10
2019-02-18T05:32:43.600Z,3.00
2019-02-18T05:37:48.684Z,2.93
2019-02-18T05:42:54.695Z,2.84
2019-02-18T05:48:00.285Z,2.78
2019-02-18T05:53:05.521Z,2.69
2019-02-18T05:58:10.507Z,2.66
2019-02-18T06:03:16.415Z,2.68
2019-02-18T06:08:21.478Z,2.69
2019-02-18T06:13:26.812Z,2.64
2019-02-18T06:18:32.515Z,2.87
2019-02-18T06:23:37.938Z,2.90
2019-02-18T06:28:43.723Z,2.95
2019-02-18T06:33:49.208Z,3.13
2019-02-18T06:38:54.307Z,3.12
2019-02-18T06:44:00.038Z,3.16
2019-02-18T06:49:25.829Z,3.28
2019-02-18T06:54:31.254Z,3.30
2019-02-18T06:59:55.365Z,3.21
2019-02-18T07:05:23.956Z,3.15
2019-02-18T07:10:43.138Z,3.22
2019-02-18T07:15:48.569Z,3.20
2019-02-18T07:20:54.305Z,3.22
2019-02-18T07:25:59.298Z,3.26
2019-02-18T07:31:04.397Z,3.28
2019-02-18T07:36:09.891Z,3.33
2019-02-18T07:41:15.323Z,3.40
2019-02-18T07:46:21.036Z,3.51
2019-02-18T07:51:26.591Z,3.68
2019-02-18T07:56:31.741Z,3.79
2019-02-18T08:01:36.806Z,4.11
2019-02-18T08:06:43.157Z,4.29
2019-02-18T08:11:48.645Z,4.49
2019-02-18T08:16:54.133Z,4.70
2019-02-18T08:21:59.619Z,4.94
2019-02-18T08:27:04.866Z,5.15
2019-02-18T08:32:10.966Z,5.38
2019-02-18T08:37:16.262Z,5.54
2019-02-18T08:42:21.405Z,5.79
2019-02-18T08:47:26.437Z,5.94
2019-02-18T08:52:31.574Z,6.13
2019-02-18T08:57:37.141Z,6.43
2019-02-18T09:02:42.489Z,6.63
2019-02-18T09:07:47.657Z,6.73
2019-02-18T09:12:53.078Z,6.80
2019-02-18T09:17:58.307Z,7.12
2019-02-18T09:23:15.242Z,7.40
2019-02-18T09:28:20.714Z,7.66
2019-02-18T09:33:26.230Z,7.71
2019-02-18T09:38:32.215Z,8.05
2019-02-18T09:43:37.654Z,8.24
2019-02-18T09:48:43.800Z,8.38
2019-02-18T09:53:49.327Z,8.55
2019-02-18T09:58:54.558Z,8.71
2019-02-18T10:04:00.167Z,9.08
2019-02-18T10:09:07.141Z,9.31
2019-02-18T10:14:12.818Z,9.53
2019-02-18T10:19:18.041Z,9.60
2019-02-18T10:24:23.105Z,9.84
2019-02-18T10:29:28.576Z,9.89
2019-02-18T10:34:33.738Z,10.28
2019-02-18T10:39:38.901Z,10.28
2019-02-18T10:44:44.388Z,10.62
2019-02-18T10:49:49.683Z,10.79
2019-02-18T10:54:54.935Z,11.07
2019-02-18T11:00:00.407Z,11.05
2019-02-18T11:05:07.591Z,11.46
2019-02-18T11:10:13.981Z,11.53
2019-02-18T11:15:19.337Z,11.75
2019-02-18T11:20:24.676Z,12.03
2019-02-18T11:25:30.189Z,12.15
2019-02-18T11:30:35.808Z,12.41
2019-02-18T11:35:41.777Z,12.60
2019-02-18T11:40:47.052Z,12.82
2019-02-18T11:45:52.212Z,12.96
2019-02-18T11:50:57.374Z,12.98
2019-02-18T11:56:02.591Z,13.15
2019-02-18T12:01:08.824Z,13.38
2019-02-18T12:06:14.067Z,13.60
2019-02-18T12:11:19.442Z,13.94
2019-02-18T12:16:25.331Z,13.92
2019-02-18T12:21:30.767Z,14.11
2019-02-18T12:26:35.920Z,14.29
2019-02-18T12:31:40.994Z,14.51
2019-02-18T12:36:46.522Z,14.52
2019-02-18T12:41:53.106Z,14.76
2019-02-18T12:46:58.246Z,14.77
2019-02-18T12:52:04.130Z,15.09
2019-02-18T12:57:09.833Z,15.19
2019-02-18T13:02:14.988Z,15.29
2019-02-18T13:07:21.040Z,15.82
2019-02-18T13:12:27.481Z,16.23
2019-02-18T13:17:32.548Z,16.28
2019-02-18T13:22:38.416Z,16.57
2019-02-18T13:27:43.655Z,16.59
2019-02-18T13:32:49.263Z,16.90
2019-02-18T13:37:54.674Z,17.26
2019-02-18T13:43:00.138Z,17.69
2019-02-18T13:48:05.363Z,17.59
2019-02-18T13:53:10.600Z,17.95
2019-02-18T13:58:15.828Z,18.05
2019-02-18T14:03:20.970Z,18.00
2019-02-18T14:08:26.203Z,18.42
2019-02-18T14:13:31.707Z,18.40
2019-02-18T14:18:37.220Z,18.79
2019-02-18T14:23:43.439Z,18.96
2019-02-18T14:28:48.582Z,18.91
2019-02-18T14:33:55.665Z,18.84
2019-02-18T14:39:00.847Z,18.97
2019-02-18T14:44:08.101Z,19.20
2019-02-18T14:49:13.733Z,18.67
2019-02-18T14:54:19.458Z,18.59
2019-02-18T14:59:24.686Z,19.14
2019-02-18T15:04:29.820Z,19.12
2019-02-18T15:09:35.061Z,18.99
2019-02-18T15:14:40.215Z,19.02
2019-02-18T15:19:45.366Z,19.24
2019-02-18T15:24:50.521Z,19.23
2019-02-18T15:29:56.129Z,19.05
2019-02-18T15:35:03.105Z,18.93
2019-02-18T15:40:10.032Z,18.94
2019-02-18T15:45:15.877Z,18.24
2019-02-18T15:50:21.423Z,17.89
2019-02-18T15:55:28.612Z,17.63
2019-02-18T16:00:34.504Z,17.33
2019-02-18T16:05:40.691Z,16.92
2019-02-18T16:10:45.843Z,16.65
2019-02-18T16:15:51.327Z,16.33
2019-02-18T16:20:56.696Z,16.08
2019-02-18T16:26:02.805Z,15.60
2019-02-18T16:31:08.497Z,15.15
2019-02-18T16:36:13.745Z,14.76
2019-02-18T16:41:18.977Z,14.37
2019-02-18T16:46:24.243Z,13.95
2019-02-18T16:51:30.231Z,13.64
2019-02-18T16:56:35.447Z,13.36
2019-02-18T17:01:41.015Z,13.07
2019-02-18T17:06:46.591Z,12.88
2019-02-18T17:11:51.727Z,12.60
2019-02-18T17:16:56.965Z,12.42
2019-02-18T17:22:02.512Z,12.34
2019-02-18T17:27:08.036Z,11.93
2019-02-18T17:32:14.602Z,11.81
2019-02-18T17:37:20.389Z,11.71
2019-02-18T17:42:26.001Z,11.60
2019-02-18T17:47:31.204Z,11.37
2019-02-18T17:52:36.770Z,10.94
2019-02-18T17:57:41.904Z,10.50
2019-02-18T18:02:47.086Z,10.11
2019-02-18T18:07:52.336Z,10.16
2019-02-18T18:12:58.744Z,10.24
2019-02-18T18:18:04.035Z,10.20
2019-02-18T18:23:09.277Z,10.15
2019-02-18T18:28:14.562Z,10.08
2019-02-18T18:33:19.702Z,9.98
2019-02-18T18:38:24.952Z,9.75
2019-02-18T18:43:33.848Z,9.71
2019-02-18T18:48:37.209Z,9.47
2019-02-18T18:53:42.821Z,9.29
2019-02-18T18:58:48.162Z,8.99
2019-02-18T19:03:54.543Z,8.78
2019-02-18T19:09:01.462Z,8.45
2019-02-18T19:14:07.704Z,8.38
2019-02-18T19:19:12.960Z,8.37
2019-02-18T19:24:18.123Z,8.43
2019-02-18T19:29:24.181Z,8.21
2019-02-18T19:34:29.608Z,8.57
2019-02-18T19:39:34.781Z,8.53
2019-02-18T19:44:39.994Z,8.01
2019-02-18T19:49:46.001Z,8.10
2019-02-18T19:54:51.639Z,8.20
2019-02-18T19:59:56.858Z,8.25
2019-02-18T20:05:02.085Z,8.30
2019-02-18T20:10:08.143Z,8.33
2019-02-18T20:15:13.486Z,8.27
2019-02-18T20:20:18.958Z,8.23
2019-02-18T20:25:24.417Z,8.18
2019-02-18T20:30:29.950Z,8.02
2019-02-18T20:35:35.754Z,8.00
2019-02-18T20:40:41.505Z,7.82
2019-02-18T20:45:47.394Z,7.77
2019-02-18T20:50:52.685Z,7.88
2019-02-18T20:55:58.592Z,7.78
2019-02-18T21:01:03.907Z,7.90
2019-02-18T21:06:09.451Z,8.02
2019-02-18T21:11:17.506Z,7.80
2019-02-18T21:16:22.828Z,7.61
2019-02-18T21:21:28.185Z,7.65
2019-02-18T21:26:36.653Z,7.76
2019-02-18T21:31:41.826Z,7.62
2019-02-18T21:36:48.356Z,7.54
2019-02-18T21:41:54.388Z,7.53
2019-02-18T21:46:59.680Z,7.45
2019-02-18T21:52:06.273Z,7.60
2019-02-18T21:57:12.046Z,7.51
2019-02-18T22:02:19.141Z,7.15
2019-02-18T22:07:24.563Z,6.94
2019-02-18T22:12:30.647Z,6.83
2019-02-18T22:17:35.805Z,6.94
2019-02-18T22:22:41.608Z,6.87
2019-02-18T22:27:46.833Z,6.82
2019-02-18T22:32:52.055Z,6.76
2019-02-18T22:37:57.328Z,6.78
2019-02-18T22:43:02.556Z,6.67
2019-02-18T22:48:08.123Z,6.59
2019-02-18T22:53:14.127Z,6.51
2019-02-18T22:58:19.486Z,6.54
2019-02-18T23:03:24.757Z,6.57
2019-02-18T23:08:30.358Z,6.53
2019-02-18T23:13:35.958Z,6.44
2019-02-18T23:18:41.432Z,6.43
2019-02-18T23:23:46.980Z,6.38
2019-02-18T23:28:52.401Z,6.47
2019-02-18T23:33:57.547Z,6.42
2019-02-18T23:39:04.079Z,6.45
2019-02-18T23:44:10.402Z,6.49
2019-02-18T23:49:15.554Z,6.45
2019-02-18T23:54:22.220Z,6.59
2019-02-18T23:59:27.509Z,6.65
